Time;durP1;ratioP1;P1;durP2;ratioP2;P2;SDS_P1;SDS_P2;PMS_P1;PMS_P2;Temp;Humidity;BMP_temperature;BMP_pressure;BME280_temperature;BME280_humidity;BME280_pressure;Samples;Min_cycle;Max_cycle;Signal;HPM_P1;HPM_P2
2023/03/02 00:02:28;;;;;;;6.27;5.87;;;;;;;;;;6220418;28;20018;-82
2023/03/02 00:05:29;;;;;;;6.17;5.77;;;;;;;;;;6237795;28;20160;-82
2023/03/02 00:08:32;;;;;;;2.00;1.97;;;;;;;;;;6235388;28;20032;-82
2023/03/02 00:11:36;;;;;;;5.40;5.03;;;;;;;;;;6217488;28;20037;-82
2023/03/02 00:14:38;;;;;;;5.63;5.30;;;;;;;;;;6233914;28;20026;-82
2023/03/02 00:17:38;;;;;;;;;;;;;;;;;;6203989;28;20022;-81
2023/03/02 00:20:38;;;;;;;24.85;8.98;;;;;;;;;;6221188;28;19952;-82
2023/03/02 00:23:42;;;;;;;9.10;8.37;;;;;;;;;;6220082;28;20499;-81
2023/03/02 00:26:42;;;;;;;6.47;6.00;;;;;;;;;;6225286;28;20021;-81
2023/03/02 00:29:42;;;;;;;12.73;11.60;;;;;;;;;;6234897;28;20080;-79
2023/03/02 00:32:43;;;;;;;11.70;9.27;;;;;;;;;;6228077;28;20022;-79
2023/03/02 00:35:43;;;;;;;7.90;7.40;;;;;;;;;;6224516;28;20029;-79
2023/03/02 00:38:43;;;;;;;23.77;18.63;;;;;;;;;;6228333;28;20021;-79
2023/03/02 00:41:44;;;;;;;17.97;16.33;;;;;;;;;;6234368;28;20094;-79
2023/03/02 00:44:45;;;;;;;11.23;8.47;;;;;;;;;;6224153;28;20020;-78
2023/03/02 00:47:45;;;;;;;12.20;9.95;;;;;;;;;;6220185;28;20089;-78
2023/03/02 00:50:46;;;;;;;26.10;23.37;;;;;;;;;;6221641;28;20448;-78
2023/03/02 00:53:46;;;;;;;19.00;16.87;;;;;;;;;;6220600;28;20516;-78
2023/03/02 00:56:46;;;;;;;19.47;17.57;;;;;;;;;;6226583;28;20432;-78
2023/03/02 00:59:46;;;;;;;21.90;19.60;;;;;;;;;;6217613;28;20026;-78
2023/03/02 01:02:47;;;;;;;9.93;8.10;;;;;;;;;;6226771;28;20523;-78
2023/03/02 01:05:48;;;;;;;14.25;12.50;;;;;;;;;;6227234;28;20018;-79
2023/03/02 01:08:48;;;;;;;17.77;15.83;;;;;;;;;;6211565;28;20464;-79
2023/03/02 01:11:48;;;;;;;13.80;8.47;;;;;;;;;;6218000;28;20524;-79
2023/03/02 01:14:51;;;;;;;13.73;12.43;;;;;;;;;;6219261;28;20033;-79
2023/03/02 01:17:51;;;;;;;16.65;11.57;;;;;;;;;;6219478;28;20456;-80
2023/03/02 01:20:59;;;;;;;8.20;7.63;;;;;;;;;;6223002;28;20026;-81
2023/03/02 01:23:59;;;;;;;10.93;10.10;;;;;;;;;;6230320;28;20387;-80
2023/03/02 01:26:59;;;;;;;18.73;11.60;;;;;;;;;;6226295;28;20041;-80
2023/03/02 01:30:00;;;;;;;5.37;5.07;;;;;;;;;;6232946;28;20471;-81
2023/03/02 01:33:00;;;;;;;10.67;9.60;;;;;;;;;;6220215;28;20527;-80
2023/03/02 01:36:00;;;;;;;10.23;9.02;;;;;;;;;;6224054;28;20029;-81
2023/03/02 01:39:00;;;;;;;14.00;12.83;;;;;;;;;;6221580;28;20047;-82
2023/03/02 01:42:01;;;;;;;16.07;14.43;;;;;;;;;;6227184;28;20129;-80
2023/03/02 01:45:01;;;;;;;6.87;6.37;;;;;;;;;;6232275;28;20022;-80
2023/03/02 01:48:03;;;;;;;13.83;12.57;;;;;;;;;;6231148;28;20020;-80
2023/03/02 01:51:04;;;;;;;10.23;9.60;;;;;;;;;;6223034;28;20018;-82
2023/03/02 01:54:09;;;;;;;21.92;17.38;;;;;;;;;;6199744;28;20412;-80
2023/03/02 01:57:11;;;;;;;18.25;11.57;;;;;;;;;;6235068;28;20483;-81
2023/03/02 02:00:13;;;;;;;50.05;24.60;;;;;;;;;;6231655;28;20391;-82
2023/03/02 02:03:19;;;;;;;18.33;16.73;;;;;;;;;;6226037;28;20488;-81
2023/03/02 02:06:25;;;;;;;9.75;8.90;;;;;;;;;;6238352;28;20495;-81
2023/03/02 02:09:28;;;;;;;12.43;11.02;;;;;;;;;;6241887;28;20057;-82
2023/03/02 02:12:28;;;;;;;10.88;10.13;;;;;;;;;;6226619;28;20071;-81
2023/03/02 02:15:28;;;;;;;10.73;10.00;;;;;;;;;;6229096;28;20014;-80
2023/03/02 02:18:29;;;;;;;6.53;6.17;;;;;;;;;;6214438;28;20452;-82
2023/03/02 02:21:30;;;;;;;9.67;9.00;;;;;;;;;;6232405;28;20021;-81
2023/03/02 02:24:35;;;;;;;29.73;6.53;;;;;;;;;;6232145;28;20526;-82
2023/03/02 02:27:35;;;;;;;4.93;4.63;;;;;;;;;;6232428;28;20070;-82
2023/03/02 02:30:36;;;;;;;16.57;14.90;;;;;;;;;;6228585;28;20487;-83
2023/03/02 02:33:37;;;;;;;8.75;8.02;;;;;;;;;;6239814;28;20025;-81
2023/03/02 02:36:40;;;;;;;8.57;7.83;;;;;;;;;;6234674;28;20045;-82
2023/03/02 02:39:43;;;;;;;12.48;10.38;;;;;;;;;;6209447;28;20276;-81
2023/03/02 02:42:46;;;;;;;11.23;10.48;;;;;;;;;;6228138;28;20056;-82
2023/03/02 02:45:51;;;;;;;10.93;9.95;;;;;;;;;;6232434;28;20471;-81
2023/03/02 02:48:52;;;;;;;6.78;6.38;;;;;;;;;;6219070;28;20018;-82
2023/03/02 02:51:52;;;;;;;5.60;5.30;;;;;;;;;;6237223;28;20056;-82
2023/03/02 02:54:55;;;;;;;4.37;4.13;;;;;;;;;;6214043;28;20381;-82
2023/03/02 02:57:57;;;;;;;6.10;5.68;;;;;;;;;;6223693;28;20081;-82
2023/03/02 03:00:58;;;;;;;7.78;7.32;;;;;;;;;;6225980;28;20399;-82
2023/03/02 03:04:01;;;;;;;7.30;6.57;;;;;;;;;;6211609;28;20026;-81
2023/03/02 03:07:02;;;;;;;11.25;10.45;;;;;;;;;;6239193;28;20024;-83
2023/03/02 03:10:21;;;;;;;17.70;15.55;;;;;;;;;;6228689;28;20034;-82
2023/03/02 03:13:24;;;;;;;18.00;16.75;;;;;;;;;;6236757;28;20037;-83
2023/03/02 03:16:25;;;;;;;18.83;17.27;;;;;;;;;;6236129;28;20036;-83
2023/03/02 03:19:27;;;;;;;8.30;7.70;;;;;;;;;;6230351;28;20118;-82
2023/03/02 03:22:27;;;;;;;;;;;;;;;;;;6235546;28;20018;-82
2023/03/02 03:25:27;;;;;;;11.40;10.60;;;;;;;;;;6222438;28;19913;-83
2023/03/02 03:28:27;;;;;;;9.97;7.57;;;;;;;;;;6228482;28;20471;-83
2023/03/02 03:31:28;;;;;;;9.77;8.90;;;;;;;;;;6239315;28;20030;-82
2023/03/02 03:34:28;;;;;;;21.40;19.73;;;;;;;;;;6205833;28;20377;-83
2023/03/02 03:37:29;;;;;;;13.40;12.10;;;;;;;;;;6227886;28;20026;-83
2023/03/02 03:40:33;;;;;;;58.85;47.25;;;;;;;;;;6226794;28;20265;-83
2023/03/02 03:43:33;;;;;;;29.00;21.85;;;;;;;;;;6234593;28;20028;-83
2023/03/02 03:46:33;;;;;;;7.50;7.10;;;;;;;;;;6246625;28;20379;-83
2023/03/02 03:49:34;;;;;;;17.07;14.93;;;;;;;;;;6242006;28;20017;-84
2023/03/02 03:52:34;;;;;;;18.20;16.33;;;;;;;;;;6235222;28;20025;-81
2023/03/02 03:55:34;;;;;;;30.67;17.87;;;;;;;;;;6225381;28;20042;-82
2023/03/02 03:58:35;;;;;;;12.13;11.27;;;;;;;;;;6204857;28;20021;-82
2023/03/02 04:01:37;;;;;;;12.33;11.40;;;;;;;;;;6204980;28;20498;-82
2023/03/02 04:04:37;;;;;;;16.27;14.50;;;;;;;;;;6228226;28;20097;-82
2023/03/02 04:07:38;;;;;;;16.23;14.90;;;;;;;;;;6204094;28;20026;-82
2023/03/02 04:10:40;;;;;;;11.13;10.27;;;;;;;;;;6235757;28;20542;-82
2023/03/02 04:13:40;;;;;;;17.30;15.85;;;;;;;;;;6217435;28;20037;-82
2023/03/02 04:16:41;;;;;;;16.87;15.43;;;;;;;;;;6227516;28;20040;-82
2023/03/02 04:19:44;;;;;;;17.90;16.67;;;;;;;;;;6227811;28;20036;-82
2023/03/02 04:22:47;;;;;;;14.25;13.07;;;;;;;;;;6225633;28;20066;-82
2023/03/02 04:25:47;;;;;;;22.98;19.05;;;;;;;;;;6224971;28;20021;-82
2023/03/02 04:28:49;;;;;;;15.37;10.40;;;;;;;;;;6221371;28;20053;-82
2023/03/02 04:31:49;;;;;;;8.68;7.93;;;;;;;;;;6239614;28;20082;-82
2023/03/02 04:34:52;;;;;;;11.90;10.77;;;;;;;;;;6205776;28;20435;-81
2023/03/02 04:37:52;;;;;;;13.32;12.48;;;;;;;;;;6223589;28;20108;-82
2023/03/02 04:40:53;;;;;;;9.02;8.40;;;;;;;;;;6219529;28;20036;-81
2023/03/02 04:43:53;;;;;;;3.50;3.03;;;;;;;;;;6222705;28;20399;-82
2023/03/02 04:46:53;;;;;;;10.20;9.63;;;;;;;;;;6220929;28;20081;-82
2023/03/02 04:49:56;;;;;;;9.13;8.23;;;;;;;;;;6234227;28;20137;-81
2023/03/02 04:52:57;;;;;;;8.93;8.43;;;;;;;;;;6230796;28;20463;-81
2023/03/02 04:55:57;;;;;;;16.70;13.98;;;;;;;;;;6223380;28;20021;-82
2023/03/02 04:58:58;;;;;;;3.03;2.93;;;;;;;;;;6228127;28;20112;-82
2023/03/02 05:01:58;;;;;;;16.27;14.70;;;;;;;;;;6226379;28;20059;-82
2023/03/02 05:04:59;;;;;;;4.45;4.15;;;;;;;;;;6235557;28;20021;-81
2023/03/02 05:07:59;;;;;;;6.87;5.43;;;;;;;;;;6225109;28;20041;-81
2023/03/02 05:11:00;;;;;;;3.75;3.40;;;;;;;;;;6202945;28;20054;-83
2023/03/02 05:14:02;;;;;;;29.30;21.00;;;;;;;;;;6221540;28;20022;-82
2023/03/02 05:17:02;;;;;;;8.35;6.50;;;;;;;;;;6221349;28;20037;-82
2023/03/02 05:20:06;;;;;;;5.67;5.30;;;;;;;;;;6219422;28;20029;-83
2023/03/02 05:23:07;;;;;;;9.52;8.68;;;;;;;;;;6232404;28;20044;-81
2023/03/02 05:26:07;;;;;;;7.60;7.10;;;;;;;;;;6228518;28;20022;-81
2023/03/02 05:29:07;;;;;;;5.90;5.60;;;;;;;;;;6213293;28;20022;-82
2023/03/02 05:32:09;;;;;;;14.00;12.60;;;;;;;;;;6228232;28;20018;-82
2023/03/02 05:35:09;;;;;;;;;;;;;;;;;;6230267;28;20044;-81
2023/03/02 05:38:10;;;;;;;9.35;8.73;;;;;;;;;;6227842;28;19909;-82
2023/03/02 05:41:11;;;;;;;11.85;10.85;;;;;;;;;;6236698;28;20030;-82
2023/03/02 05:44:11;;;;;;;15.37;6.60;;;;;;;;;;6232758;28;20426;-82
2023/03/02 05:47:13;;;;;;;13.10;11.73;;;;;;;;;;6232645;28;20117;-81
2023/03/02 05:50:13;;;;;;;6.50;5.95;;;;;;;;;;6214638;28;20045;-81
2023/03/02 05:53:13;;;;;;;22.07;9.93;;;;;;;;;;6235061;28;20046;-80
2023/03/02 05:56:13;;;;;;;13.68;12.80;;;;;;;;;;6238574;28;20021;-82
2023/03/02 05:59:15;;;;;;;21.10;9.37;;;;;;;;;;6231656;28;20364;-81
2023/03/02 06:02:16;;;;;;;32.67;21.58;;;;;;;;;;6226880;28;20022;-81
2023/03/02 06:05:17;;;;;;;12.23;11.17;;;;;;;;;;6237989;28;20028;-81
2023/03/02 06:08:20;;;;;;;17.45;13.27;;;;;;;;;;6244252;28;20104;-82
2023/03/02 06:11:20;;;;;;;13.43;12.05;;;;;;;;;;6215377;28;20458;-80
2023/03/02 06:14:20;;;;;;;12.57;11.30;;;;;;;;;;6205653;28;20028;-81
2023/03/02 06:17:21;;;;;;;25.53;16.67;;;;;;;;;;6236575;28;20471;-80
2023/03/02 06:20:21;;;;;;;17.17;15.60;;;;;;;;;;6229468;28;20105;-79
2023/03/02 06:23:21;;;;;;;16.13;11.10;;;;;;;;;;6233086;28;20021;-78
2023/03/02 06:26:23;;;;;;;19.97;9.17;;;;;;;;;;6237733;28;20475;-78
2023/03/02 06:29:23;;;;;;;24.90;14.25;;;;;;;;;;6206383;28;20025;-78
2023/03/02 06:32:24;;;;;;;21.20;12.23;;;;;;;;;;6237644;28;20026;-79
2023/03/02 06:35:24;;;;;;;24.03;21.60;;;;;;;;;;6231411;28;20095;-81
2023/03/02 06:38:24;;;;;;;19.30;16.27;;;;;;;;;;6241181;28;20511;-84
2023/03/02 06:41:25;;;;;;;24.07;19.80;;;;;;;;;;6207941;28;20053;-85
2023/03/02 06:44:25;;;;;;;36.50;24.70;;;;;;;;;;6225720;28;20057;-83
2023/03/02 06:47:25;;;;;;;27.17;17.52;;;;;;;;;;6237660;28;20084;-82
2023/03/02 06:50:33;;;;;;;31.20;20.80;;;;;;;;;;6225535;28;20093;-86
2023/03/02 06:53:34;;;;;;;38.80;22.35;;;;;;;;;;6244305;28;20037;-84
2023/03/02 06:56:34;;;;;;;18.17;16.53;;;;;;;;;;6228752;28;20095;-86
2023/03/02 06:59:34;;;;;;;62.70;34.63;;;;;;;;;;6226030;28;20022;-87
2023/03/02 07:12:05;;;;;;;32.63;20.42;;;;;;;;;;6527352;22;20530;-85
2023/03/02 07:15:09;;;;;;;34.33;18.50;;;;;;;;;;6248808;28;20031;-83
2023/03/02 07:18:10;;;;;;;14.70;11.88;;;;;;;;;;6273272;28;20439;-84
2023/03/02 07:21:12;;;;;;;24.07;18.10;;;;;;;;;;6273975;28;20069;-83
2023/03/02 07:24:12;;;;;;;19.33;16.23;;;;;;;;;;6256623;28;20403;-83
2023/03/02 07:27:12;;;;;;;37.20;17.47;;;;;;;;;;6266212;28;20032;-84
2023/03/02 07:30:13;;;;;;;12.37;11.27;;;;;;;;;;6264977;28;20028;-84
2023/03/02 07:33:14;;;;;;;;;;;;;;;;;;6267417;28;20040;-83
2023/03/02 07:36:14;;;;;;;33.55;15.15;;;;;;;;;;6265300;28;20433;-84
2023/03/02 07:39:14;;;;;;;16.80;15.15;;;;;;;;;;6244904;28;20025;-85
2023/03/02 07:42:15;;;;;;;21.73;16.98;;;;;;;;;;6272110;28;20552;-85
2023/03/02 07:45:19;;;;;;;21.80;18.87;;;;;;;;;;6254398;28;20021;-85
2023/03/02 07:48:22;;;;;;;27.65;20.90;;;;;;;;;;6227624;28;20066;-84
2023/03/02 07:51:22;;;;;;;15.43;13.80;;;;;;;;;;6219872;28;20511;-84
2023/03/02 07:54:25;;;;;;;24.07;21.50;;;;;;;;;;6244977;28;20037;-84
2023/03/02 07:57:25;;;;;;;24.48;15.52;;;;;;;;;;6255558;28;20113;-84
2023/03/02 08:00:26;;;;;;;37.00;22.17;;;;;;;;;;6262283;28;20028;-83
2023/03/02 08:03:27;;;;;;;19.53;17.67;;;;;;;;;;6231071;28;20024;-83
2023/03/02 08:06:27;;;;;;;18.50;12.77;;;;;;;;;;6257970;28;20386;-83
2023/03/02 08:09:27;;;;;;;22.60;12.40;;;;;;;;;;6256113;28;20024;-82
2023/03/02 08:12:28;;;;;;;10.63;9.50;;;;;;;;;;6263931;28;20143;-82
2023/03/02 08:15:28;;;;;;;13.23;11.97;;;;;;;;;;6252623;28;20025;-81
2023/03/02 08:18:28;;;;;;;8.45;6.78;;;;;;;;;;6257312;28;20021;-81
2023/03/02 08:21:29;;;;;;;12.17;6.00;;;;;;;;;;6251466;28;20029;-81
2023/03/02 08:24:29;;;;;;;14.10;7.63;;;;;;;;;;6249151;28;20658;-80
2023/03/02 08:27:29;;;;;;;31.57;9.10;;;;;;;;;;6256995;28;20543;-80
2023/03/02 08:30:31;;;;;;;12.70;8.13;;;;;;;;;;6249065;28;20426;-80
2023/03/02 08:33:31;;;;;;;;;;;;;;;;;;6253551;28;20483;-80
2023/03/02 08:36:31;;;;;;;15.18;9.40;;;;;;;;;;6240102;28;19909;-80
2023/03/02 08:39:32;;;;;;;7.07;4.93;;;;;;;;;;6253124;28;20431;-79
2023/03/02 08:42:32;;;;;;;16.87;6.77;;;;;;;;;;6246197;28;20044;-79
2023/03/02 08:45:33;;;;;;;8.63;6.67;;;;;;;;;;6244049;28;20013;-79
2023/03/02 08:48:33;;;;;;;7.35;6.45;;;;;;;;;;6249694;28;20018;-79
2023/03/02 08:51:35;;;;;;;9.70;6.60;;;;;;;;;;6255315;28;20073;-79
2023/03/02 08:54:35;;;;;;;;;;;;;;;;;;6246786;28;20026;-79
2023/03/02 08:57:35;;;;;;;7.32;5.72;;;;;;;;;;6243354;28;19916;-79
2023/03/02 09:00:36;;;;;;;4.83;4.47;;;;;;;;;;6226503;28;20063;-79
2023/03/02 09:03:36;;;;;;;3.10;2.90;;;;;;;;;;6245414;28;20017;-79
2023/03/02 09:06:37;;;;;;;15.55;2.33;;;;;;;;;;6252039;28;20393;-78
2023/03/02 09:09:38;;;;;;;;;;;;;;;;;;6250799;28;20671;-79
2023/03/02 09:12:38;;;;;;;24.92;3.58;;;;;;;;;;6227851;28;20359;-78
2023/03/02 09:15:38;;;;;;;3.03;2.77;;;;;;;;;;6238326;28;20112;-78
2023/03/02 09:18:41;;;;;;;2.67;2.47;;;;;;;;;;6232060;28;20018;-78
2023/03/02 09:21:41;;;;;;;2.78;1.95;;;;;;;;;;6227488;28;20446;-78
2023/03/02 09:24:41;;;;;;;5.10;3.47;;;;;;;;;;6240580;28;20075;-78
2023/03/02 09:27:44;;;;;;;2.80;2.23;;;;;;;;;;6252090;28;20403;-78
2023/03/02 09:30:48;;;;;;;2.17;2.05;;;;;;;;;;6253595;28;20083;-78
2023/03/02 09:33:48;;;;;;;3.63;2.42;;;;;;;;;;6257052;28;20056;-78
2023/03/02 09:36:48;;;;;;;2.50;2.30;;;;;;;;;;6260871;28;20030;-78
2023/03/02 09:39:48;;;;;;;2.33;2.08;;;;;;;;;;6258475;28;20464;-78
2023/03/02 09:42:55;;;;;;;11.30;3.77;;;;;;;;;;6255533;28;20025;-79
2023/03/02 09:46:13;;;;;;;6.75;2.50;;;;;;;;;;6257140;28;20026;-79
2023/03/02 09:49:19;;;;;;;5.43;2.45;;;;;;;;;;6243277;28;20022;-78
2023/03/02 09:52:29;;;;;;;2.38;2.17;;;;;;;;;;6228885;28;20368;-78
2023/03/02 09:55:32;;;;;;;3.72;2.97;;;;;;;;;;6251034;28;20059;-78
2023/03/02 09:58:34;;;;;;;1.80;1.70;;;;;;;;;;6233092;28;20033;-78
2023/03/02 10:01:40;;;;;;;1.67;1.58;;;;;;;;;;6251508;28;20524;-78
2023/03/02 10:04:45;;;;;;;3.78;2.05;;;;;;;;;;6251866;28;20100;-79
2023/03/02 10:07:46;;;;;;;1.90;1.75;;;;;;;;;;6254187;28;20022;-78
2023/03/02 10:10:56;;;;;;;3.72;3.28;;;;;;;;;;6237036;28;20053;-78
2023/03/02 10:14:01;;;;;;;3.05;2.80;;;;;;;;;;6254570;28;20449;-78
2023/03/02 10:17:14;;;;;;;2.42;2.20;;;;;;;;;;6262999;28;20098;-78
2023/03/02 10:20:35;;;;;;;1.60;1.55;;;;;;;;;;6260962;28;20561;-79
2023/03/02 10:23:38;;;;;;;1.50;1.40;;;;;;;;;;6256362;28;20031;-78
2023/03/02 10:26:42;;;;;;;2.17;1.27;;;;;;;;;;6259801;28;20016;-78
2023/03/02 10:30:05;;;;;;;1.33;1.33;;;;;;;;;;6254151;28;20026;-78
2023/03/02 10:33:11;;;;;;;2.28;2.17;;;;;;;;;;6258191;28;20040;-79
2023/03/02 10:36:28;;;;;;;6.00;2.88;;;;;;;;;;6257428;28;20020;-78
2023/03/02 10:39:28;;;;;;;4.13;2.65;;;;;;;;;;6249800;28;20017;-78
2023/03/02 10:42:34;;;;;;;7.78;2.35;;;;;;;;;;6245294;28;20025;-78
2023/03/02 10:45:34;;;;;;;9.27;3.80;;;;;;;;;;6265121;28;20021;-78
2023/03/02 10:48:58;;;;;;;4.67;3.73;;;;;;;;;;6242738;28;20053;-79
2023/03/02 10:52:03;;;;;;;1.35;1.15;;;;;;;;;;6251964;28;20068;-78
2023/03/02 10:55:13;;;;;;;3.13;2.90;;;;;;;;;;6247806;28;20036;-78
2023/03/02 10:58:30;;;;;;;3.50;3.30;;;;;;;;;;6254724;28;20079;-78
2023/03/02 11:01:30;;;;;;;2.58;2.38;;;;;;;;;;6247796;28;20022;-78
2023/03/02 11:04:30;;;;;;;1.57;1.33;;;;;;;;;;6259369;28;20021;-78
2023/03/02 11:07:31;;;;;;;1.27;1.27;;;;;;;;;;6254781;28;20010;-79
2023/03/02 11:10:33;;;;;;;4.17;2.97;;;;;;;;;;6253419;28;20088;-78
2023/03/02 11:13:34;;;;;;;1.65;1.55;;;;;;;;;;6234051;28;20022;-78
2023/03/02 11:16:34;;;;;;;1.13;1.10;;;;;;;;;;6223873;28;20125;-77
2023/03/02 11:19:37;;;;;;;2.77;1.50;;;;;;;;;;6259076;28;20562;-77
2023/03/02 11:22:43;;;;;;;1.83;1.75;;;;;;;;;;6255580;28;20076;-77
2023/03/02 11:25:50;;;;;;;2.65;1.65;;;;;;;;;;6246319;28;20022;-77
2023/03/02 11:28:59;;;;;;;1.05;1.02;;;;;;;;;;6244956;28;20479;-77
2023/03/02 11:31:59;;;;;;;1.42;1.38;;;;;;;;;;6245336;28;20105;-77
2023/03/02 11:34:59;;;;;;;2.03;1.80;;;;;;;;;;6244169;28;20033;-77
2023/03/02 11:38:23;;;;;;;2.35;2.15;;;;;;;;;;6224240;28;20550;-77
2023/03/02 11:41:28;;;;;;;3.90;2.70;;;;;;;;;;6233536;28;20037;-78
2023/03/02 11:44:29;;;;;;;2.13;2.00;;;;;;;;;;6265056;28;20195;-78
2023/03/02 11:47:31;;;;;;;1.57;1.30;;;;;;;;;;6247202;28;20041;-78
2023/03/02 11:50:37;;;;;;;2.33;2.13;;;;;;;;;;6253541;28;20096;-78
2023/03/02 11:53:43;;;;;;;2.42;1.70;;;;;;;;;;6252049;28;20021;-78
2023/03/02 11:56:43;;;;;;;1.60;1.50;;;;;;;;;;6254349;28;20025;-78
2023/03/02 11:59:44;;;;;;;13.17;4.33;;;;;;;;;;6259139;28;20459;-78
2023/03/02 12:02:44;;;;;;;1.40;1.30;;;;;;;;;;6233088;28;20380;-78
2023/03/02 12:05:50;;;;;;;5.60;1.33;;;;;;;;;;6248076;28;20475;-77
2023/03/02 12:08:51;;;;;;;2.65;2.42;;;;;;;;;;6229187;28;20025;-78
2023/03/02 12:11:56;;;;;;;4.00;2.33;;;;;;;;;;6248730;28;20051;-78
2023/03/02 12:14:57;;;;;;;2.30;2.15;;;;;;;;;;6249090;28;20037;-78
2023/03/02 12:17:57;;;;;;;0.57;0.57;;;;;;;;;;6234933;28;20105;-78
2023/03/02 12:20:57;;;;;;;0.97;0.97;;;;;;;;;;6258834;28;20052;-77
2023/03/02 12:23:58;;;;;;;2.67;1.67;;;;;;;;;;6242026;28;20518;-78
2023/03/02 12:27:00;;;;;;;1.27;1.23;;;;;;;;;;6227189;28;20116;-78
2023/03/02 12:30:15;;;;;;;2.28;1.77;;;;;;;;;;6261099;28;20052;-78
2023/03/02 12:33:19;;;;;;;2.47;2.28;;;;;;;;;;6258978;28;20025;-78
2023/03/02 12:36:28;;;;;;;24.40;4.47;;;;;;;;;;6220958;28;20068;-78
2023/03/02 12:39:42;;;;;;;9.57;3.30;;;;;;;;;;6248077;28;20075;-78
2023/03/02 12:42:57;;;;;;;2.22;1.55;;;;;;;;;;6247749;28;20592;-78
2023/03/02 12:46:01;;;;;;;2.28;1.85;;;;;;;;;;6225763;28;20368;-78
2023/03/02 12:49:04;;;;;;;2.25;1.55;;;;;;;;;;6245489;28;20072;-79
2023/03/02 12:52:23;;;;;;;0.50;0.50;;;;;;;;;;6239279;28;20029;-78
2023/03/02 12:55:23;;;;;;;3.80;2.42;;;;;;;;;;6246831;28;20029;-78
2023/03/02 12:58:26;;;;;;;1.80;1.70;;;;;;;;;;6254446;28;20490;-78
2023/03/02 13:01:29;;;;;;;5.30;2.65;;;;;;;;;;6247129;28;20607;-78
2023/03/02 13:04:33;;;;;;;4.28;3.15;;;;;;;;;;6251461;28;20017;-78
2023/03/02 13:07:39;;;;;;;6.45;4.03;;;;;;;;;;6257229;28;20021;-78
2023/03/02 13:10:43;;;;;;;2.22;1.38;;;;;;;;;;6243629;28;20049;-79
2023/03/02 13:13:43;;;;;;;5.20;4.40;;;;;;;;;;6255931;28;20028;-77
2023/03/02 13:16:44;;;;;;;;;;;;;;;;;;6255931;28;20021;-78
2023/03/02 13:19:45;;;;;;;2.28;1.95;;;;;;;;;;6246848;28;19955;-79
2023/03/02 13:22:46;;;;;;;1.90;1.60;;;;;;;;;;6266508;28;20035;-78
2023/03/02 13:25:46;;;;;;;;;;;;;;;;;;6254729;28;20594;-77
2023/03/02 13:28:46;;;;;;;4.82;4.32;;;;;;;;;;6254090;28;19913;-78
2023/03/02 13:31:47;;;;;;;4.63;2.88;;;;;;;;;;6252673;28;20017;-78
2023/03/02 13:34:49;;;;;;;4.00;1.67;;;;;;;;;;6248603;28;20013;-77
2023/03/02 13:38:01;;;;;;;1.10;1.10;;;;;;;;;;6250280;28;20132;-77
2023/03/02 13:41:02;;;;;;;4.13;2.58;;;;;;;;;;6247723;28;20081;-78
2023/03/02 13:44:18;;;;;;;3.38;2.40;;;;;;;;;;6251600;28;20019;-78
2023/03/02 13:47:23;;;;;;;7.18;2.65;;;;;;;;;;6256346;28;20033;-77
2023/03/02 13:50:28;;;;;;;10.80;5.00;;;;;;;;;;6260291;28;20029;-78
2023/03/02 13:53:30;;;;;;;2.53;2.33;;;;;;;;;;6270273;28;20036;-77
2023/03/02 13:56:31;;;;;;;2.95;2.72;;;;;;;;;;6262096;28;20025;-78
2023/03/02 13:59:33;;;;;;;8.32;3.92;;;;;;;;;;6233809;28;20063;-77
2023/03/02 14:02:33;;;;;;;3.15;2.95;;;;;;;;;;6245408;28;20108;-77
2023/03/02 14:05:34;;;;;;;4.03;3.67;;;;;;;;;;6236927;28;20029;-77
2023/03/02 14:08:34;;;;;;;3.70;2.17;;;;;;;;;;6258856;28;20082;-77
2023/03/02 14:11:36;;;;;;;7.83;2.03;;;;;;;;;;6261955;28;20077;-78
2023/03/02 14:14:38;;;;;;;0.38;0.38;;;;;;;;;;6246373;28;20522;-77
2023/03/02 14:17:38;;;;;;;1.25;1.23;;;;;;;;;;6252832;28;20028;-78
2023/03/02 14:20:40;;;;;;;2.53;2.33;;;;;;;;;;6263611;28;20020;-77
2023/03/02 14:23:44;;;;;;;2.30;1.67;;;;;;;;;;6269667;28;20021;-78
2023/03/02 14:26:46;;;;;;;2.20;2.10;;;;;;;;;;6259910;28;20127;-79
2023/03/02 14:29:46;;;;;;;3.33;2.72;;;;;;;;;;6262946;28;20017;-77
2023/03/02 14:32:47;;;;;;;2.07;1.97;;;;;;;;;;6267759;28;20024;-77
2023/03/02 14:35:48;;;;;;;1.87;1.77;;;;;;;;;;6266906;28;20059;-78
2023/03/02 14:38:48;;;;;;;2.50;2.25;;;;;;;;;;6260428;28;20014;-77
2023/03/02 14:41:50;;;;;;;8.10;2.23;;;;;;;;;;6237495;28;20024;-77
2023/03/02 14:44:50;;;;;;;0.82;0.82;;;;;;;;;;6237193;28;20140;-77
2023/03/02 14:47:50;;;;;;;1.37;1.27;;;;;;;;;;6256917;28;20013;-78
2023/03/02 14:50:51;;;;;;;1.63;1.47;;;;;;;;;;6257017;28;20084;-78
2023/03/02 14:53:52;;;;;;;5.43;1.83;;;;;;;;;;6245477;28;20014;-77
2023/03/02 14:57:14;;;;;;;2.20;2.00;;;;;;;;;;6241547;28;20081;-78
2023/03/02 15:00:24;;;;;;;1.15;1.13;;;;;;;;;;6229944;28;20021;-79
2023/03/02 15:03:25;;;;;;;2.85;2.60;;;;;;;;;;6251316;28;20510;-76
2023/03/02 15:06:29;;;;;;;1.65;1.55;;;;;;;;;;6258345;28;20468;-77
2023/03/02 15:09:29;;;;;;;2.08;1.98;;;;;;;;;;6246441;28;20439;-77
2023/03/02 15:12:30;;;;;;;3.90;2.70;;;;;;;;;;6241201;28;20080;-77
2023/03/02 15:15:30;;;;;;;8.80;3.93;;;;;;;;;;6248986;28;20033;-77
2023/03/02 15:18:30;;;;;;;3.67;2.77;;;;;;;;;;6241492;28;20064;-78
2023/03/02 15:21:30;;;;;;;3.37;2.37;;;;;;;;;;6231725;28;20028;-77
2023/03/02 15:24:31;;;;;;;1.83;1.73;;;;;;;;;;6267083;28;20471;-78
2023/03/02 15:27:31;;;;;;;0.67;0.67;;;;;;;;;;6248441;28;20006;-78
2023/03/02 15:30:31;;;;;;;1.97;1.87;;;;;;;;;;6252597;28;20014;-77
2023/03/02 15:33:33;;;;;;;2.28;2.08;;;;;;;;;;6249351;28;20364;-78
2023/03/02 15:36:33;;;;;;;1.90;1.80;;;;;;;;;;6257714;28;20483;-77
2023/03/02 15:39:33;;;;;;;7.07;3.33;;;;;;;;;;6234449;28;20021;-78
2023/03/02 15:42:33;;;;;;;4.70;2.47;;;;;;;;;;6258852;28;20048;-78
2023/03/02 15:45:35;;;;;;;0.90;0.90;;;;;;;;;;6260898;28;20009;-77
2023/03/02 15:48:35;;;;;;;3.50;3.25;;;;;;;;;;6249026;28;20385;-78
2023/03/02 15:51:36;;;;;;;3.53;2.97;;;;;;;;;;6258413;28;20032;-77
2023/03/02 15:54:36;;;;;;;1.83;1.73;;;;;;;;;;6255537;28;20033;-77
2023/03/02 15:57:37;;;;;;;4.70;4.30;;;;;;;;;;6263234;28;20028;-77
2023/03/02 16:00:38;;;;;;;1.52;1.42;;;;;;;;;;6256449;28;20168;-78
2023/03/02 16:03:38;;;;;;;1.03;1.03;;;;;;;;;;6259801;28;20017;-77
2023/03/02 16:06:40;;;;;;;1.55;1.45;;;;;;;;;;6256123;28;20025;-77
2023/03/02 16:09:40;;;;;;;8.07;2.95;;;;;;;;;;6245125;28;20023;-77
2023/03/02 16:12:40;;;;;;;1.90;1.80;;;;;;;;;;6245999;28;20042;-77
2023/03/02 16:15:41;;;;;;;3.10;2.37;;;;;;;;;;6251244;28;20013;-78
2023/03/02 16:18:41;;;;;;;6.20;5.40;;;;;;;;;;6249038;28;20059;-77
2023/03/02 16:21:42;;;;;;;1.60;1.52;;;;;;;;;;6263644;28;20017;-77
2023/03/02 16:24:43;;;;;;;2.88;2.65;;;;;;;;;;6253286;28;20414;-77
2023/03/02 16:27:46;;;;;;;2.70;2.07;;;;;;;;;;6263693;28;20020;-77
2023/03/02 16:30:47;;;;;;;4.20;3.80;;;;;;;;;;6241308;28;20109;-77
2023/03/02 16:33:49;;;;;;;3.95;3.63;;;;;;;;;;6262759;28;20017;-78
2023/03/02 16:36:49;;;;;;;2.63;2.42;;;;;;;;;;6261478;28;20079;-78
2023/03/02 16:39:49;;;;;;;3.33;2.60;;;;;;;;;;6248129;28;20017;-78
2023/03/02 16:42:52;;;;;;;5.70;5.00;;;;;;;;;;6246554;28;20096;-78
2023/03/02 16:45:52;;;;;;;6.85;6.40;;;;;;;;;;6243193;28;20013;-76
2023/03/02 16:48:55;;;;;;;4.43;4.13;;;;;;;;;;6251616;28;20424;-77
2023/03/02 16:51:58;;;;;;;6.68;5.60;;;;;;;;;;6251792;28;20387;-78
2023/03/02 16:54:59;;;;;;;10.45;9.48;;;;;;;;;;6251130;28;20029;-79
2023/03/02 16:58:08;;;;;;;1.40;1.40;;;;;;;;;;6230449;28;20061;-78
2023/03/02 17:01:11;;;;;;;3.05;2.85;;;;;;;;;;6251805;28;20036;-78
2023/03/02 17:04:11;;;;;;;1.00;1.00;;;;;;;;;;6251722;28;20140;-80
2023/03/02 17:07:18;;;;;;;1.27;1.27;;;;;;;;;;6257792;28;20505;-78
2023/03/02 17:10:19;;;;;;;2.40;2.30;;;;;;;;;;6249699;28;20396;-78
2023/03/02 17:13:20;;;;;;;;;;;;;;;;;;6250362;28;20038;-78
2023/03/02 17:16:20;;;;;;;3.03;2.92;;;;;;;;;;6260895;28;19960;-77
2023/03/02 17:19:21;;;;;;;2.27;2.17;;;;;;;;;;6250105;28;20072;-77
2023/03/02 17:22:21;;;;;;;6.93;4.70;;;;;;;;;;6254530;28;20042;-77
2023/03/02 17:25:21;;;;;;;12.03;2.23;;;;;;;;;;6257453;28;20020;-77
2023/03/02 17:28:22;;;;;;;7.63;3.80;;;;;;;;;;6264801;28;20018;-78
2023/03/02 17:31:22;;;;;;;2.53;2.37;;;;;;;;;;6243721;28;20018;-77
2023/03/02 17:34:22;;;;;;;1.53;1.47;;;;;;;;;;6240041;28;20100;-77
2023/03/02 17:37:24;;;;;;;7.47;3.83;;;;;;;;;;6259961;28;20024;-76
2023/03/02 17:40:26;;;;;;;0.63;0.63;;;;;;;;;;6236659;28;20403;-78
2023/03/02 17:43:28;;;;;;;0.80;0.80;;;;;;;;;;6239935;28;20480;-77
2023/03/02 17:46:31;;;;;;;4.30;3.47;;;;;;;;;;6231257;28;20041;-77
2023/03/02 17:49:31;;;;;;;4.68;2.80;;;;;;;;;;6255693;28;20028;-77
2023/03/02 17:52:31;;;;;;;3.30;3.13;;;;;;;;;;6248753;28;20092;-78
2023/03/02 17:55:37;;;;;;;7.67;5.47;;;;;;;;;;6243078;28;20036;-78
2023/03/02 17:58:38;;;;;;;13.13;5.90;;;;;;;;;;6250439;28;20396;-78
2023/03/02 18:01:38;;;;;;;6.77;6.10;;;;;;;;;;6238708;28;20072;-77
2023/03/02 18:04:38;;;;;;;4.27;3.97;;;;;;;;;;6241154;28;20045;-78
2023/03/02 18:07:40;;;;;;;6.77;6.13;;;;;;;;;;6240864;28;20014;-77
2023/03/02 18:10:41;;;;;;;10.93;7.70;;;;;;;;;;6244984;28;20056;-77
2023/03/02 18:13:41;;;;;;;4.47;4.17;;;;;;;;;;6231866;28;20021;-77
2023/03/02 18:16:41;;;;;;;8.40;7.13;;;;;;;;;;6252807;28;20033;-77